createdAt,value
2023-02-11T00:00:42.436Z,46.77
2023-02-11T00:03:09.497Z,45.40
2023-02-11T00:05:37.596Z,29.03
2023-02-11T00:08:04.569Z,28.30
2023-02-11T00:10:32.323Z,28.53
2023-02-11T00:12:58.964Z,31.07
2023-02-11T00:15:25.786Z,37.00
2023-02-11T00:17:52.501Z,30.00
2023-02-11T00:20:20.239Z,30.07
2023-02-11T00:22:46.956Z,31.37
2023-02-11T00:25:13.625Z,42.03
2023-02-11T00:27:40.341Z,47.40
2023-02-11T00:30:07.556Z,39.60
2023-02-11T00:32:34.682Z,23.70
2023-02-11T00:35:01.337Z,20.67
2023-02-11T00:37:28.175Z,17.67
2023-02-11T00:39:55.087Z,22.30
2023-02-11T00:42:21.753Z,19.60
2023-02-11T00:44:48.442Z,23.40
2023-02-11T00:47:15.130Z,22.87
2023-02-11T00:49:41.940Z,24.50
2023-02-11T00:52:08.686Z,29.83
2023-02-11T00:54:35.624Z,31.80
2023-02-11T00:57:02.300Z,36.70
2023-02-11T00:59:29.162Z,30.93
2023-02-11T01:01:56.944Z,27.73
2023-02-11T01:04:23.706Z,25.53
2023-02-11T01:06:50.478Z,28.47
2023-02-11T01:09:17.157Z,26.00
2023-02-11T01:11:44.141Z,36.67
2023-02-11T01:14:10.838Z,32.03
2023-02-11T01:16:37.662Z,28.77
2023-02-11T01:19:04.583Z,25.30
2023-02-11T01:21:31.285Z,28.27
2023-02-11T01:23:57.988Z,32.87
2023-02-11T01:26:24.726Z,33.17
2023-02-11T01:28:51.513Z,42.00
2023-02-11T01:31:18.311Z,36.70
2023-02-11T01:33:45.105Z,26.10
2023-02-11T01:36:12.456Z,26.60
2023-02-11T01:38:41.057Z,25.00
2023-02-11T01:41:11.164Z,24.00
2023-02-11T01:43:42.503Z,28.23
2023-02-11T01:46:34.966Z,25.90
2023-02-11T01:49:09.380Z,29.43
2023-02-11T01:51:46.581Z,30.27
2023-02-11T01:54:37.181Z,28.10
2023-02-11T01:57:24.932Z,27.57
2023-02-11T02:00:06.738Z,28.37
2023-02-11T02:02:45.502Z,30.63
2023-02-11T02:05:49.107Z,31.73
2023-02-11T02:08:44.136Z,32.17
2023-02-11T02:11:11.059Z,30.50
2023-02-11T02:13:38.257Z,33.70
2023-02-11T02:16:09.797Z,28.80
2023-02-11T02:19:08.735Z,26.47
2023-02-11T02:22:04.578Z,30.93
2023-02-11T02:25:10.258Z,34.17
2023-02-11T02:28:05.323Z,31.23
2023-02-11T02:30:46.964Z,35.47
2023-02-11T02:33:23.123Z,49.10
2023-02-11T02:36:07.287Z,36.77
2023-02-11T02:38:41.083Z,32.72
2023-02-11T02:41:11.944Z,31.05
2023-02-11T02:43:45.733Z,25.50
2023-02-11T02:46:19.391Z,23.98
2023-02-11T02:48:47.464Z,27.20
2023-02-11T02:51:42.120Z,28.57
2023-02-11T02:54:27.192Z,21.63
2023-02-11T02:57:18.005Z,18.47
2023-02-11T03:00:18.004Z,19.63
2023-02-11T03:03:09.267Z,15.20
2023-02-11T03:05:41.827Z,24.20
2023-02-11T03:08:15.492Z,26.45
2023-02-11T03:10:45.880Z,22.87
2023-02-11T03:13:17.048Z,21.53
2023-02-11T03:15:48.688Z,26.40
2023-02-11T03:18:18.673Z,26.17
2023-02-11T03:20:49.698Z,29.77
2023-02-11T03:23:25.165Z,26.57
2023-02-11T03:26:18.399Z,25.07
2023-02-11T03:29:22.619Z,33.07
2023-02-11T03:32:07.567Z,40.60
2023-02-11T03:34:47.918Z,46.17
2023-02-11T03:37:20.395Z,56.90
2023-02-11T03:40:15.723Z,58.67
2023-02-11T03:42:54.282Z,59.47
2023-02-11T03:45:23.946Z,50.40
2023-02-11T03:48:25.387Z,42.70
2023-02-11T03:50:54.471Z,38.27
2023-02-11T03:53:22.407Z,69.37
2023-02-11T03:55:52.590Z,86.70
2023-02-11T03:58:19.718Z,74.23
2023-02-11T04:00:46.445Z,76.77
2023-02-11T04:03:13.724Z,73.77
2023-02-11T04:05:41.045Z,47.47
2023-02-11T04:08:07.819Z,36.97
2023-02-11T04:10:34.695Z,18.60
2023-02-11T04:13:01.537Z,16.23
2023-02-11T04:15:28.372Z,24.93
2023-02-11T04:17:55.021Z,29.27
2023-02-11T04:20:21.712Z,30.60
2023-02-11T04:22:48.449Z,31.53
2023-02-11T04:25:15.136Z,33.27
2023-02-11T04:27:41.797Z,42.13
2023-02-11T04:30:09.498Z,40.10
2023-02-11T04:32:36.203Z,39.30
2023-02-11T04:35:03.672Z,37.57
2023-02-11T04:37:30.456Z,30.27
2023-02-11T04:39:57.237Z,31.37
2023-02-11T04:42:24.763Z,27.50
2023-02-11T04:44:52.695Z,15.40
2023-02-11T04:47:19.566Z,20.37
2023-02-11T04:49:46.251Z,21.63
2023-02-11T04:52:12.921Z,31.17
2023-02-11T04:54:39.725Z,34.33
2023-02-11T04:57:06.440Z,34.90
2023-02-11T04:59:33.185Z,37.63
2023-02-11T05:02:00.102Z,48.43
2023-02-11T05:04:26.856Z,35.27
2023-02-11T05:06:53.504Z,30.97
2023-02-11T05:09:20.242Z,34.87
2023-02-11T05:11:47.012Z,39.40
2023-02-11T05:14:13.685Z,38.70
2023-02-11T05:16:40.383Z,43.77
2023-02-11T05:19:07.239Z,44.50
2023-02-11T05:21:33.995Z,41.63
2023-02-11T05:24:00.769Z,53.70
2023-02-11T05:26:27.614Z,49.33
2023-02-11T05:28:54.329Z,43.47
2023-02-11T05:31:21.098Z,41.00
2023-02-11T05:33:47.816Z,61.03
2023-02-11T05:36:14.941Z,389.93
2023-02-11T05:38:42.670Z,128.30
2023-02-11T05:41:10.595Z,78.90
2023-02-11T05:43:37.666Z,64.47
2023-02-11T05:46:04.910Z,61.50
2023-02-11T05:48:32.293Z,92.73
2023-02-11T05:50:59.358Z,142.40
2023-02-11T05:53:26.085Z,72.03
2023-02-11T05:55:52.969Z,62.80
2023-02-11T05:58:19.764Z,58.23
2023-02-11T06:00:46.406Z,46.63
2023-02-11T06:03:13.111Z,58.07
2023-02-11T06:05:39.849Z,55.63
2023-02-11T06:08:06.504Z,57.00
2023-02-11T06:10:33.186Z,52.67
2023-02-11T06:12:59.892Z,75.57
2023-02-11T06:15:26.628Z,113.90
2023-02-11T06:17:53.369Z,115.67
2023-02-11T06:20:20.783Z,125.47
2023-02-11T06:22:47.580Z,128.30
2023-02-11T06:25:15.055Z,127.77
2023-02-11T06:27:41.802Z,126.27
2023-02-11T06:30:10.308Z,144.87
2023-02-11T06:32:44.483Z,160.87
2023-02-11T06:35:12.787Z,142.40
2023-02-11T06:37:40.511Z,139.80
2023-02-11T06:40:07.573Z,139.63
2023-02-11T06:42:36.181Z,125.13
2023-02-11T06:45:06.109Z,113.63
2023-02-11T06:47:33.119Z,85.13
2023-02-11T06:50:00.240Z,96.93
2023-02-11T06:52:26.939Z,85.93
2023-02-11T06:54:53.597Z,93.97
2023-02-11T06:57:20.285Z,86.83
2023-02-11T06:59:46.961Z,80.00
2023-02-11T07:02:13.675Z,77.37
2023-02-11T07:04:40.440Z,85.00
2023-02-11T07:07:07.116Z,79.10
2023-02-11T07:09:33.810Z,89.57
2023-02-11T07:12:00.583Z,79.70
2023-02-11T07:14:27.430Z,74.83
2023-02-11T07:16:54.273Z,76.17
2023-02-11T07:19:21.100Z,60.87
2023-02-11T07:21:48.890Z,71.17
2023-02-11T07:24:15.646Z,76.40
2023-02-11T07:26:42.814Z,76.50
2023-02-11T07:29:09.929Z,90.80
2023-02-11T07:31:36.710Z,78.57
2023-02-11T07:34:03.653Z,69.07
2023-02-11T07:36:32.127Z,79.43
2023-02-11T07:39:00.258Z,77.47
2023-02-11T07:41:27.912Z,78.07
2023-02-11T07:43:54.732Z,99.60
2023-02-11T07:46:27.073Z,79.53
2023-02-11T07:48:55.037Z,91.47
2023-02-11T07:51:24.971Z,127.45
2023-02-11T07:53:52.228Z,89.07
2023-02-11T07:56:20.549Z,78.15
2023-02-11T07:58:47.690Z,89.35
2023-02-11T08:01:18.013Z,89.53
2023-02-11T08:03:45.753Z,87.35
2023-02-11T08:06:14.793Z,80.53
2023-02-11T08:08:42.883Z,89.07
2023-02-11T08:11:17.901Z,72.18
2023-02-11T08:16:20.142Z,69.40
2023-02-11T08:21:13.974Z,76.32
2023-02-11T08:23:42.406Z,65.63
2023-02-11T08:26:19.273Z,104.68
2023-02-11T08:28:48.007Z,74.38
2023-02-11T08:31:20.370Z,69.25
2023-02-11T08:33:47.358Z,59.45
2023-02-11T08:36:16.039Z,67.53
2023-02-11T08:38:44.425Z,61.85
2023-02-11T08:41:11.601Z,60.78
2023-02-11T08:43:41.742Z,59.67
2023-02-11T08:46:17.409Z,107.65
2023-02-11T08:48:45.215Z,36.97
2023-02-11T08:51:21.967Z,44.78
2023-02-11T08:53:49.196Z,31.88
2023-02-11T08:56:17.037Z,23.77
2023-02-11T08:58:44.280Z,23.63
2023-02-11T09:01:12.909Z,49.35
2023-02-11T09:03:41.334Z,20.02
2023-02-11T09:06:10.473Z,15.27
2023-02-11T09:08:38.923Z,17.05
2023-02-11T09:11:06.099Z,16.42
2023-02-11T09:13:33.317Z,16.92
2023-02-11T09:16:02.436Z,14.60
2023-02-11T09:18:29.107Z,17.08
2023-02-11T09:21:06.681Z,18.42
2023-02-11T09:23:34.575Z,15.90
2023-02-11T09:26:09.553Z,15.30
2023-02-11T09:28:36.599Z,67.15
2023-02-11T09:31:08.558Z,12.18
2023-02-11T09:33:36.229Z,14.52
2023-02-11T09:36:05.420Z,22.63
2023-02-11T09:38:33.402Z,12.43
2023-02-11T09:41:02.726Z,11.65
2023-02-11T09:43:46.832Z,10.13
2023-02-11T09:46:15.982Z,9.57
2023-02-11T09:48:46.114Z,10.23
2023-02-11T09:51:48.384Z,6.03
2023-02-11T09:54:34.346Z,7.68
2023-02-11T09:57:01.196Z,7.93
2023-02-11T09:59:28.071Z,11.70
2023-02-11T10:02:17.448Z,8.88
2023-02-11T10:05:02.767Z,7.72
2023-02-11T10:07:43.277Z,10.82
2023-02-11T10:10:15.825Z,10.00
2023-02-11T10:13:02.733Z,10.07
2023-02-11T10:15:55.549Z,7.80
2023-02-11T10:18:46.785Z,10.25
2023-02-11T10:21:28.654Z,13.52
2023-02-11T10:24:00.847Z,9.77
2023-02-11T10:26:31.067Z,16.70
2023-02-11T10:29:05.643Z,16.48
2023-02-11T10:31:43.821Z,12.35
2023-02-11T10:34:12.759Z,17.10
2023-02-11T10:36:42.107Z,8.00
2023-02-11T10:39:21.081Z,8.07
2023-02-11T10:41:54.849Z,8.85
2023-02-11T10:44:27.679Z,5.00
2023-02-11T10:46:55.686Z,6.75
2023-02-11T10:49:35.844Z,11.18
2023-02-11T10:52:26.032Z,9.98
2023-02-11T10:55:01.746Z,8.00
2023-02-11T10:57:50.245Z,11.85
2023-02-11T11:00:41.073Z,11.68
2023-02-11T11:03:18.805Z,5.70
2023-02-11T11:05:51.615Z,8.52
2023-02-11T11:08:19.363Z,6.00
2023-02-11T11:11:04.013Z,4.95
2023-02-11T11:13:36.219Z,8.52
2023-02-11T11:16:12.235Z,7.40
2023-02-11T11:18:43.968Z,5.75
2023-02-11T11:21:34.456Z,7.13
2023-02-11T11:24:03.916Z,8.93
2023-02-11T11:26:42.358Z,9.15
2023-02-11T11:29:17.899Z,10.68
2023-02-11T11:31:54.797Z,6.68
2023-02-11T11:34:32.496Z,5.65
2023-02-11T11:37:02.009Z,7.53
2023-02-11T11:39:35.011Z,7.28
2023-02-11T11:42:06.116Z,14.18
2023-02-11T11:44:33.637Z,8.40
2023-02-11T11:47:12.659Z,7.93
2023-02-11T11:50:21.698Z,5.85
2023-02-11T11:52:54.247Z,8.18
2023-02-11T11:55:33.540Z,6.22
2023-02-11T11:58:00.605Z,6.47
2023-02-11T12:00:36.305Z,7.13
2023-02-11T12:03:15.037Z,9.45
2023-02-11T12:06:03.534Z,8.27
2023-02-11T12:08:51.513Z,8.82
2023-02-11T12:11:18.220Z,5.30
2023-02-11T12:13:50.625Z,5.40
2023-02-11T12:16:36.326Z,11.15
2023-02-11T12:19:32.055Z,9.75
2023-02-11T12:22:20.629Z,5.47
2023-02-11T12:24:59.175Z,4.78
2023-02-11T12:27:48.284Z,6.45
2023-02-11T12:30:40.762Z,8.10
2023-02-11T12:33:23.679Z,6.05
2023-02-11T12:35:58.995Z,9.50
2023-02-11T12:38:33.589Z,9.70
2023-02-11T12:41:46.705Z,10.50
2023-02-11T12:44:29.584Z,14.65
2023-02-11T12:47:08.454Z,14.57
2023-02-11T12:49:42.632Z,15.07
2023-02-11T12:52:27.867Z,12.60
2023-02-11T12:55:26.797Z,10.38
2023-02-11T12:57:57.345Z,11.52
2023-02-11T13:00:30.634Z,6.15
2023-02-11T13:03:12.122Z,7.88
2023-02-11T13:05:49.703Z,10.90
2023-02-11T13:08:36.745Z,8.75
2023-02-11T13:11:16.126Z,10.55
2023-02-11T13:14:02.161Z,8.27
2023-02-11T13:16:48.670Z,10.23
2023-02-11T13:19:34.908Z,6.60
2023-02-11T13:22:16.644Z,9.13
2023-02-11T13:25:02.146Z,6.95
2023-02-11T13:27:51.097Z,7.15
2023-02-11T13:30:32.720Z,16.20
2023-02-11T13:33:02.281Z,8.20
2023-02-11T13:36:04.406Z,9.25
2023-02-11T13:38:32.905Z,8.32
2023-02-11T13:41:04.545Z,10.73
2023-02-11T13:43:33.779Z,10.77
2023-02-11T13:46:04.997Z,12.98
2023-02-11T13:48:53.214Z,9.00
2023-02-11T13:51:40.422Z,8.27
2023-02-11T13:54:08.179Z,13.70
2023-02-11T13:56:40.732Z,17.63
2023-02-11T13:59:33.556Z,11.93
2023-02-11T14:02:18.961Z,13.88
2023-02-11T14:08:29.025Z,18.27
2023-02-11T14:11:26.597Z,15.15
2023-02-11T14:13:53.233Z,15.38
2023-02-11T14:16:36.969Z,14.27
2023-02-11T14:19:04.540Z,19.70
2023-02-11T14:21:37.650Z,25.83
2023-02-11T14:24:11.749Z,24.40
2023-02-11T14:26:47.597Z,20.13
2023-02-11T14:29:32.618Z,23.55
2023-02-11T14:32:17.520Z,19.27
2023-02-11T14:35:21.618Z,18.75
2023-02-11T14:37:50.677Z,26.88
2023-02-11T14:40:49.466Z,26.90
2023-02-11T14:43:24.250Z,24.00
2023-02-11T14:45:55.687Z,21.45
2023-02-11T14:48:28.688Z,32.70
2023-02-11T14:51:02.398Z,21.88
2023-02-11T14:53:32.161Z,24.67
2023-02-11T14:55:59.311Z,20.35
2023-02-11T14:58:31.772Z,64.28
2023-02-11T15:01:06.661Z,78.93
2023-02-11T15:03:41.983Z,80.18
2023-02-11T15:06:21.467Z,66.68
2023-02-11T15:09:03.156Z,78.85
2023-02-11T15:11:34.063Z,47.00
2023-02-11T15:14:25.952Z,109.53
2023-02-11T15:16:54.996Z,104.57
2023-02-11T15:19:38.448Z,109.83
2023-02-11T15:22:08.273Z,102.50
2023-02-11T15:24:35.664Z,80.97
2023-02-11T15:27:08.379Z,88.93
2023-02-11T15:29:38.897Z,80.33
2023-02-11T15:32:12.599Z,79.30
2023-02-11T15:34:39.512Z,73.70
2023-02-11T15:37:06.463Z,73.23
2023-02-11T15:39:37.836Z,75.87
2023-02-11T15:42:23.030Z,103.57
2023-02-11T15:47:29.638Z,114.23
2023-02-11T15:49:56.411Z,158.90
2023-02-11T15:52:26.355Z,87.67
2023-02-11T15:54:56.213Z,101.27
2023-02-11T15:57:23.380Z,170.97
2023-02-11T15:59:53.429Z,168.47
2023-02-11T16:02:34.994Z,230.07
2023-02-11T16:05:09.693Z,363.13
2023-02-11T16:07:50.408Z,207.25
2023-02-11T16:10:33.549Z,430.20
2023-02-11T16:13:06.459Z,188.33
2023-02-11T16:15:49.896Z,166.10
2023-02-11T16:18:37.419Z,127.53
2023-02-11T16:21:07.851Z,138.43
2023-02-11T16:23:37.223Z,193.27
2023-02-11T16:26:10.793Z,209.30
2023-02-11T16:28:38.244Z,159.53
2023-02-11T16:31:06.129Z,208.10
2023-02-11T16:33:33.005Z,177.07
2023-02-11T16:36:02.221Z,180.40
2023-02-11T16:38:30.077Z,275.40
2023-02-11T16:40:56.783Z,239.53
2023-02-11T16:43:23.434Z,183.63
2023-02-11T16:45:50.647Z,184.17
2023-02-11T16:48:19.335Z,114.70
2023-02-11T16:50:52.835Z,122.73
2023-02-11T16:53:25.269Z,174.27
2023-02-11T16:55:53.227Z,225.47
2023-02-11T16:58:20.174Z,268.23
2023-02-11T17:00:48.418Z,236.40
2023-02-11T17:03:21.262Z,180.43
2023-02-11T17:05:55.384Z,185.67
2023-02-11T17:08:22.569Z,150.27
2023-02-11T17:10:49.736Z,141.27
2023-02-11T17:13:16.673Z,224.57
2023-02-11T17:15:43.567Z,180.30
2023-02-11T17:18:13.815Z,147.57
2023-02-11T17:20:41.723Z,243.77
2023-02-11T17:23:09.676Z,127.40
2023-02-11T17:25:40.618Z,150.67
2023-02-11T17:28:09.086Z,157.93
2023-02-11T17:30:35.915Z,136.27
2023-02-11T17:33:02.670Z,131.27
2023-02-11T17:35:29.274Z,117.20
2023-02-11T17:37:56.054Z,140.43
2023-02-11T17:40:22.858Z,149.73
2023-02-11T17:42:50.310Z,131.93
2023-02-11T17:45:17.180Z,135.90
2023-02-11T17:47:43.908Z,191.10
2023-02-11T17:50:11.104Z,196.77
2023-02-11T17:52:38.142Z,212.87
2023-02-11T17:55:05.961Z,214.07
2023-02-11T17:57:32.950Z,223.87
2023-02-11T17:59:59.640Z,222.83
2023-02-11T18:02:26.412Z,202.57
2023-02-11T18:04:53.404Z,202.27
2023-02-11T18:07:20.336Z,182.57
2023-02-11T18:09:48.100Z,161.10
2023-02-11T18:12:15.019Z,180.50
2023-02-11T18:14:41.764Z,155.43
2023-02-11T18:17:08.592Z,121.77
2023-02-11T18:19:36.677Z,115.13
2023-02-11T18:22:04.441Z,102.50
2023-02-11T18:24:31.456Z,108.07
2023-02-11T18:26:58.435Z,132.67
2023-02-11T18:29:25.390Z,156.33
2023-02-11T18:31:55.150Z,161.80
2023-02-11T18:34:22.276Z,163.07
2023-02-11T18:36:52.236Z,145.53
2023-02-11T18:39:20.232Z,138.97
2023-02-11T18:41:46.990Z,145.67
2023-02-11T18:44:14.324Z,146.40
2023-02-11T18:46:41.202Z,141.37
2023-02-11T18:49:07.963Z,117.47
2023-02-11T18:51:34.612Z,161.93
2023-02-11T18:54:01.800Z,150.67
2023-02-11T18:56:28.611Z,218.77
2023-02-11T18:58:56.660Z,197.90
2023-02-11T19:01:27.388Z,252.87
2023-02-11T19:03:55.848Z,133.07
2023-02-11T19:06:27.584Z,107.77
2023-02-11T19:08:59.341Z,131.50
2023-02-11T19:11:46.447Z,114.20
2023-02-11T19:14:14.695Z,118.00
2023-02-11T19:16:43.486Z,127.43
2023-02-11T19:19:10.538Z,116.67
2023-02-11T19:21:37.423Z,216.87
2023-02-11T19:24:08.374Z,144.23
2023-02-11T19:26:36.249Z,119.77
2023-02-11T19:29:03.974Z,144.70
2023-02-11T19:31:41.011Z,170.70
2023-02-11T19:34:08.374Z,202.30
2023-02-11T19:36:35.341Z,187.03
2023-02-11T19:39:03.057Z,191.67
2023-02-11T19:41:30.523Z,153.70
2023-02-11T19:43:57.576Z,146.27
2023-02-11T19:46:25.727Z,147.50
2023-02-11T19:48:53.230Z,141.40
2023-02-11T19:51:20.734Z,136.03
2023-02-11T19:53:48.330Z,148.23
2023-02-11T19:56:15.780Z,158.30
2023-02-11T19:58:43.790Z,168.70
2023-02-11T20:01:13.362Z,129.03
2023-02-11T20:03:42.580Z,123.20
2023-02-11T20:06:15.464Z,127.87
2023-02-11T20:08:42.090Z,120.20
2023-02-11T20:11:15.251Z,97.37
2023-02-11T20:13:42.536Z,93.50
2023-02-11T20:16:13.223Z,103.63
2023-02-11T20:18:40.879Z,169.00
2023-02-11T20:21:29.824Z,121.90
2023-02-11T20:23:57.195Z,222.67
2023-02-11T20:26:30.028Z,117.10
2023-02-11T20:28:59.003Z,83.27
2023-02-11T20:31:25.816Z,135.97
2023-02-11T20:33:52.681Z,168.67
2023-02-11T20:36:22.495Z,218.03
2023-02-11T20:38:49.776Z,257.03
2023-02-11T20:41:19.649Z,169.60
2023-02-11T20:43:51.909Z,196.13
2023-02-11T20:46:22.112Z,154.07
2023-02-11T20:48:49.299Z,82.60
2023-02-11T20:51:20.166Z,62.63
2023-02-11T20:53:49.960Z,62.50
2023-02-11T20:56:22.216Z,70.93
2023-02-11T20:58:49.786Z,75.40
2023-02-11T21:01:20.256Z,152.20
2023-02-11T21:03:58.857Z,135.87
2023-02-11T21:06:30.763Z,107.60
2023-02-11T21:08:57.727Z,85.90
2023-02-11T21:11:24.459Z,56.13
2023-02-11T21:13:51.171Z,64.17
2023-02-11T21:16:20.604Z,73.87
2023-02-11T21:18:48.362Z,89.53
2023-02-11T21:21:15.399Z,76.63
2023-02-11T21:23:42.050Z,104.90
2023-02-11T21:26:09.084Z,95.07
2023-02-11T21:28:37.990Z,76.77
2023-02-11T21:31:06.088Z,93.87
2023-02-11T21:33:33.806Z,86.97
2023-02-11T21:36:03.560Z,75.17
2023-02-11T21:38:30.964Z,79.53
2023-02-11T21:41:04.114Z,93.47
2023-02-11T21:43:31.388Z,124.07
2023-02-11T21:45:58.057Z,118.37
2023-02-11T21:48:25.937Z,116.63
2023-02-11T21:50:53.507Z,114.53
2023-02-11T21:53:20.530Z,80.70
2023-02-11T21:55:47.274Z,92.13
2023-02-11T21:58:14.250Z,95.50
2023-02-11T22:00:41.061Z,95.00
2023-02-11T22:03:07.826Z,117.57
2023-02-11T22:05:34.545Z,95.77
2023-02-11T22:08:01.267Z,89.57
2023-02-11T22:10:27.997Z,90.87
2023-02-11T22:12:54.672Z,85.93
2023-02-11T22:15:21.344Z,107.13
2023-02-11T22:17:48.011Z,135.83
2023-02-11T22:20:16.067Z,117.53
2023-02-11T22:22:42.724Z,117.53
2023-02-11T22:25:09.488Z,99.77
2023-02-11T22:27:36.136Z,80.17
2023-02-11T22:30:02.946Z,68.07
2023-02-11T22:32:29.683Z,61.40
2023-02-11T22:34:57.358Z,74.27
2023-02-11T22:37:24.021Z,65.20
2023-02-11T22:39:50.808Z,57.17
2023-02-11T22:42:17.490Z,57.10
2023-02-11T22:44:44.284Z,69.70
2023-02-11T22:47:11.086Z,77.70
2023-02-11T22:49:41.093Z,84.00
2023-02-11T22:52:07.901Z,62.03
2023-02-11T22:54:36.188Z,66.70
2023-02-11T22:57:04.907Z,78.30
2023-02-11T22:59:31.586Z,57.23
2023-02-11T23:01:58.554Z,73.03
2023-02-11T23:04:25.299Z,67.17
2023-02-11T23:06:51.998Z,75.93
2023-02-11T23:09:18.708Z,68.57
2023-02-11T23:11:46.969Z,62.70
2023-02-11T23:14:13.745Z,68.60
2023-02-11T23:16:40.496Z,65.70
2023-02-11T23:19:10.968Z,53.70
2023-02-11T23:21:39.341Z,65.90
2023-02-11T23:24:12.976Z,57.43
2023-02-11T23:26:41.095Z,59.35
2023-02-11T23:29:08.476Z,55.57
2023-02-11T23:31:39.866Z,61.23
2023-02-11T23:34:08.618Z,90.23
2023-02-11T23:36:35.792Z,83.70
2023-02-11T23:39:02.524Z,57.93
2023-02-11T23:41:29.326Z,47.00
2023-02-11T23:43:57.949Z,43.33
2023-02-11T23:46:26.440Z,52.63
2023-02-11T23:48:53.630Z,55.67
2023-02-11T23:51:20.873Z,42.27
2023-02-11T23:53:49.309Z,57.10
2023-02-11T23:56:22.230Z,64.63
2023-02-11T23:58:50.357Z,75.57
